Time;durP1;ratioP1;P1;durP2;ratioP2;P2;SDS_P1;SDS_P2;PMS_P1;PMS_P2;Temp;Humidity;BMP_temperature;BMP_pressure;BME280_temperature;BME280_humidity;BME280_pressure;Samples;Min_cycle;Max_cycle;Signal;HPM_P1;HPM_P2
2024/01/02 00:00:28;;;;;;;29.35;19.25;;;;;;;10.03;76.67;101178.09;5090122;28;20101;-87
2024/01/02 00:02:54;;;;;;;29.92;18.52;;;;;;;10.02;76.30;101170.19;5067774;28;20052;-86
2024/01/02 00:05:20;;;;;;;28.38;19.00;;;;;;;10.10;76.30;101189.84;5104694;28;20552;-86
2024/01/02 00:07:45;;;;;;;28.67;18.90;;;;;;;10.34;76.61;101235.75;5085865;28;20032;-86
2024/01/02 00:10:11;;;;;;;28.80;18.75;;;;;;;10.01;76.77;101184.03;5090355;28;20024;-86
2024/01/02 00:12:38;;;;;;;29.42;18.30;;;;;;;10.22;76.59;101231.44;5075175;28;20032;-85
2024/01/02 00:15:05;;;;;;;27.85;18.38;;;;;;;10.45;76.75;101257.31;5082403;28;20594;-87
2024/01/02 00:17:30;;;;;;;27.10;18.13;;;;;;;10.09;76.38;101193.25;5068123;28;20025;-87
2024/01/02 00:19:56;;;;;;;27.00;18.17;;;;;;;10.34;76.61;101241.00;5085775;28;20032;-87
2024/01/02 00:22:22;;;;;;;29.73;19.38;;;;;;;10.42;76.79;101262.38;5085121;28;20050;-85
2024/01/02 00:24:47;;;;;;;29.77;18.40;;;;;;;10.06;76.42;101191.34;5088795;28;20040;-86
2024/01/02 00:27:13;;;;;;;28.30;18.48;;;;;;;10.14;76.33;101203.19;5088254;28;20070;-86
2024/01/02 00:29:38;;;;;;;31.20;19.52;;;;;;;10.01;76.11;101178.81;5078375;28;20050;-86
2024/01/02 00:32:05;;;;;;;29.98;19.25;;;;;;;10.31;76.41;101235.59;5082234;28;20069;-85
2024/01/02 00:34:30;;;;;;;30.58;19.83;;;;;;;10.30;76.29;101232.88;5084809;28;20539;-86
2024/01/02 00:36:57;;;;;;;32.03;21.00;;;;;;;9.99;76.02;101179.63;5080307;28;20044;-85
2024/01/02 00:39:22;;;;;;;;;;;;;;;10.44;76.13;101260.75;5086143;28;20101;-86
2024/01/02 00:41:49;;;;;;;28.05;18.85;;;;;;;10.21;76.41;101225.34;5089522;28;19920;-86
2024/01/02 00:44:15;;;;;;;29.50;18.90;;;;;;;10.27;76.33;101233.56;5095633;28;20169;-85
2024/01/02 00:46:41;;;;;;;30.27;19.33;;;;;;;9.95;76.49;101175.03;5088551;28;20016;-86
2024/01/02 00:49:06;;;;;;;29.60;18.77;;;;;;;10.07;76.32;101195.75;5079258;28;20086;-88
2024/01/02 00:51:32;;;;;;;28.63;18.95;;;;;;;10.04;76.63;101187.75;5069821;28;20096;-86
2024/01/02 00:54:01;;;;;;;30.05;19.38;;;;;;;10.22;76.27;101221.91;5074038;28;20130;-87
2024/01/02 00:56:26;;;;;;;30.20;19.02;;;;;;;10.02;76.46;101185.84;5083348;28;20039;-86
2024/01/02 00:58:52;;;;;;;30.38;19.02;;;;;;;10.26;76.40;101228.22;5090804;28;20417;-86
2024/01/02 01:01:18;;;;;;;28.27;18.95;;;;;;;10.23;76.68;101222.84;5106298;27;20118;-86
2024/01/02 01:03:44;;;;;;;;;;;;;;;10.38;76.85;101242.97;5088636;28;20524;-86
2024/01/02 01:06:10;;;;;;;29.60;18.42;;;;;;;10.23;76.56;101222.84;5092927;28;19919;-85
2024/01/02 01:08:36;;;;;;;28.08;18.83;;;;;;;10.17;76.56;101221.63;5091256;28;20028;-85
2024/01/02 01:11:01;;;;;;;28.13;18.27;;;;;;;10.24;76.72;101222.00;5091624;28;20028;-86
2024/01/02 01:13:27;;;;;;;29.30;19.17;;;;;;;10.31;76.40;101227.75;5073324;28;20028;-86
2024/01/02 01:15:53;;;;;;;31.17;19.58;;;;;;;10.25;76.80;101221.22;5093367;28;20031;-87
2024/01/02 01:18:18;;;;;;;28.10;17.98;;;;;;;10.06;76.77;101186.13;5083259;28;20032;-88
2024/01/02 01:20:44;;;;;;;27.45;18.35;;;;;;;10.30;76.49;101230.25;5086503;28;20489;-86
2024/01/02 01:23:10;;;;;;;31.90;19.73;;;;;;;10.27;76.29;101223.13;5076221;28;20028;-87
2024/01/02 01:25:35;;;;;;;29.95;19.48;;;;;;;10.25;76.16;101213.41;5085629;28;20140;-86
2024/01/02 01:28:03;;;;;;;30.40;18.52;;;;;;;10.07;76.52;101192.25;5095080;28;20035;-86
2024/01/02 01:30:29;;;;;;;28.65;18.77;;;;;;;10.33;76.10;101240.91;5091097;28;20043;-87
2024/01/02 01:32:55;;;;;;;29.63;18.55;;;;;;;10.26;76.49;101228.22;5072100;28;20032;-87
2024/01/02 01:35:21;;;;;;;27.45;18.05;;;;;;;9.94;76.32;101174.94;5097725;27;20037;-86
2024/01/02 01:37:46;;;;;;;30.52;19.42;;;;;;;10.13;75.99;101200.47;5085369;28;20131;-87
2024/01/02 01:40:12;;;;;;;30.67;20.05;;;;;;;10.01;76.10;101181.44;5074101;28;20074;-87
2024/01/02 01:42:38;;;;;;;29.85;18.30;;;;;;;10.10;76.40;101195.06;5092391;28;20032;-87
2024/01/02 01:45:04;;;;;;;28.80;18.80;;;;;;;10.18;76.59;101205.19;5090852;28;20036;-85
2024/01/02 01:47:30;;;;;;;28.77;18.27;;;;;;;10.12;76.24;101189.13;5088921;28;20040;-87
2024/01/02 01:49:56;;;;;;;27.13;18.17;;;;;;;10.13;76.04;101183.09;5086394;28;20115;-87
2024/01/02 01:52:21;;;;;;;33.05;19.88;;;;;;;10.24;76.23;101212.47;5098648;28;20107;-87
2024/01/02 01:54:48;;;;;;;27.75;18.60;;;;;;;10.36;76.47;101230.66;5081908;28;20093;-88
2024/01/02 01:57:14;;;;;;;30.02;18.30;;;;;;;10.09;76.35;101190.63;5087830;28;20469;-87
2024/01/02 01:59:40;;;;;;;28.88;18.73;;;;;;;10.32;76.60;101223.44;5077801;28;20037;-87
2024/01/02 02:02:06;;;;;;;27.55;18.27;;;;;;;10.35;76.27;101226.22;5087535;28;20039;-87
2024/01/02 02:04:32;;;;;;;29.92;18.95;;;;;;;10.33;76.12;101214.81;5082661;28;20020;-86
2024/01/02 02:06:58;;;;;;;29.17;18.90;;;;;;;10.18;76.17;101204.25;5081433;28;21624;-86
2024/01/02 02:09:24;;;;;;;27.85;18.88;;;;;;;10.17;76.27;101205.97;5088872;28;20088;-86
2024/01/02 02:11:49;;;;;;;29.95;19.10;;;;;;;10.08;76.16;101191.47;5092055;28;20028;-88
2024/01/02 02:14:15;;;;;;;29.80;19.50;;;;;;;10.31;76.16;101219.94;5060776;28;20036;-88
2024/01/02 02:16:42;;;;;;;28.95;18.65;;;;;;;9.94;76.09;101151.44;5079388;28;20406;-88
2024/01/02 02:19:08;;;;;;;27.77;18.40;;;;;;;10.00;76.25;101159.66;5090676;28;20111;-87
2024/01/02 02:21:35;;;;;;;28.95;18.63;;;;;;;10.26;76.37;101199.53;5088313;28;20111;-88
2024/01/02 02:24:01;;;;;;;26.73;17.77;;;;;;;10.15;76.60;101186.69;5073608;28;20032;-87
2024/01/02 02:26:27;;;;;;;26.17;18.83;;;;;;;10.20;76.10;101192.19;5076748;28;20046;-87
2024/01/02 02:28:52;;;;;;;28.23;18.35;;;;;;;10.31;76.13;101212.09;5086189;28;20412;-88
2024/01/02 02:31:18;;;;;;;28.30;18.15;;;;;;;10.22;76.27;101197.53;5095169;27;20027;-88
2024/01/02 02:33:44;;;;;;;28.58;18.90;;;;;;;10.23;76.04;101194.13;5083469;28;20119;-88
2024/01/02 02:36:10;;;;;;;;;;;;;;;10.33;76.12;101207.88;5089896;28;20047;-88
2024/01/02 02:38:36;;;;;;;29.75;18.27;;;;;;;10.00;76.16;101151.84;5087365;28;19916;-88
2024/01/02 02:41:01;;;;;;;28.05;18.58;;;;;;;10.30;75.99;101207.66;5091253;28;20569;-88
2024/01/02 02:43:27;;;;;;;28.80;19.20;;;;;;;10.33;75.92;101218.31;5072087;28;20028;-87
2024/01/02 02:45:53;;;;;;;26.95;17.75;;;;;;;10.25;75.95;101193.41;5087592;28;20505;-87
2024/01/02 02:48:18;;;;;;;29.92;18.80;;;;;;;10.06;76.02;101141.78;5091300;28;20032;-87
2024/01/02 02:50:44;;;;;;;28.90;18.67;;;;;;;10.03;76.33;101133.75;5067770;28;20035;-87
2024/01/02 02:53:10;;;;;;;28.92;18.17;;;;;;;9.88;76.01;101107.59;5079106;28;20051;-87
2024/01/02 02:55:35;;;;;;;29.40;18.83;;;;;;;10.28;76.18;101170.09;5085561;28;20020;-86
2024/01/02 02:58:01;;;;;;;28.17;19.02;;;;;;;10.13;75.76;101140.44;5086963;28;20028;-87
2024/01/02 03:00:27;;;;;;;29.95;18.83;;;;;;;10.15;76.13;101142.34;5090918;28;20065;-87
2024/01/02 03:02:56;;;;;;;27.60;18.10;;;;;;;10.03;75.86;101125.03;5099520;28;20032;-86
2024/01/02 03:05:22;;;;;;;27.92;18.33;;;;;;;10.37;75.63;101181.16;5077134;28;20032;-87
2024/01/02 03:07:48;;;;;;;27.00;18.08;;;;;;;10.05;75.63;101123.41;5100549;28;20058;-87
2024/01/02 03:10:17;;;;;;;28.13;18.02;;;;;;;9.97;75.68;101115.13;5089419;28;20679;-87
2024/01/02 03:12:44;;;;;;;27.65;17.90;;;;;;;9.77;75.92;101095.63;5081256;28;20013;-87
2024/01/02 03:15:10;;;;;;;26.92;17.45;;;;;;;10.17;76.07;101160.72;5089880;28;20477;-87
2024/01/02 03:17:35;;;;;;;29.52;19.55;;;;;;;9.99;76.13;101126.56;5096797;28;20062;-88
2024/01/02 03:20:02;;;;;;;26.35;17.58;;;;;;;10.08;76.05;101141.88;5087987;28;20028;-87
2024/01/02 03:22:28;;;;;;;27.63;18.63;;;;;;;10.01;75.88;101122.31;5080902;28;20020;-87
2024/01/02 03:24:54;;;;;;;27.92;18.30;;;;;;;10.23;76.21;101165.41;5068304;28;20033;-86
2024/01/02 03:27:20;;;;;;;27.15;17.98;;;;;;;10.06;75.80;101135.66;5083732;28;20139;-89
2024/01/02 03:29:46;;;;;;;27.83;18.10;;;;;;;10.22;76.04;101169.72;5078586;28;20048;-88
2024/01/02 03:32:12;;;;;;;26.17;17.27;;;;;;;9.83;75.89;101100.31;5092007;28;20028;-86
2024/01/02 03:34:39;;;;;;;27.33;17.83;;;;;;;10.34;75.87;101195.72;5083752;28;20032;-87
2024/01/02 03:37:08;;;;;;;26.88;17.75;;;;;;;9.96;76.22;101128.97;5088614;28;20054;-87
2024/01/02 03:39:35;;;;;;;26.77;17.63;;;;;;;10.16;76.25;101162.44;5071964;28;20056;-87
2024/01/02 03:42:02;;;;;;;26.73;18.27;;;;;;;10.10;76.14;101145.50;5064170;28;20024;-89
2024/01/02 03:44:28;;;;;;;27.48;17.25;;;;;;;9.94;75.99;101108.00;5069334;28;20032;-87
2024/01/02 03:46:56;;;;;;;28.35;18.45;;;;;;;10.20;75.98;101137.41;5077494;28;20046;-89
2024/01/02 03:49:23;;;;;;;28.10;17.95;;;;;;;10.05;76.02;101132.13;5084073;28;20473;-88
2024/01/02 03:51:49;;;;;;;;;;;;;;;10.33;76.14;101173.03;5072679;28;20145;-89
2024/01/02 03:54:15;;;;;;;28.77;18.42;;;;;;;10.19;75.82;101160.00;5069334;28;19944;-89
2024/01/02 03:56:40;;;;;;;27.42;18.33;;;;;;;10.31;75.72;101188.59;5082611;28;20063;-89
2024/01/02 03:59:07;;;;;;;29.88;18.58;;;;;;;10.28;75.67;101197.91;5098607;28;20032;-89
2024/01/02 04:01:32;;;;;;;28.17;18.75;;;;;;;10.30;75.81;101192.00;5071746;28;20032;-87
2024/01/02 04:04:00;;;;;;;28.73;18.65;;;;;;;10.23;75.69;101184.59;5073492;28;20086;-87
2024/01/02 04:06:32;;;;;;;27.58;18.38;;;;;;;10.15;75.94;101167.53;5087614;28;20401;-87
2024/01/02 04:08:58;;;;;;;29.30;18.75;;;;;;;9.77;75.69;101106.94;5072734;28;20504;-87
2024/01/02 04:11:23;;;;;;;30.17;18.27;;;;;;;10.18;75.61;101178.16;5072653;28;20020;-87
2024/01/02 04:13:49;;;;;;;28.17;18.10;;;;;;;10.17;75.71;101171.16;5067136;28;20081;-86
2024/01/02 04:16:15;;;;;;;26.67;17.80;;;;;;;10.23;75.84;101189.78;5082417;28;20032;-85
2024/01/02 04:18:41;;;;;;;26.27;18.30;;;;;;;9.95;75.75;101141.13;5068703;28;20029;-87
2024/01/02 04:21:06;;;;;;;;;;;;;;;10.33;75.67;101197.44;5082089;28;20032;-87
2024/01/02 04:23:32;;;;;;;28.88;17.73;;;;;;;10.12;75.81;101178.69;5080867;28;19912;-88
2024/01/02 04:25:58;;;;;;;28.10;18.25;;;;;;;9.97;75.97;101164.69;5077507;28;20106;-88
2024/01/02 04:28:23;;;;;;;26.30;18.02;;;;;;;10.28;75.54;101214.47;5079596;28;21213;-88
2024/01/02 04:30:50;;;;;;;25.13;17.42;;;;;;;10.15;75.74;101206.69;5090625;28;20039;-86
2024/01/02 04:33:16;;;;;;;30.55;17.88;;;;;;;9.95;75.87;101176.75;5087762;28;20039;-86
2024/01/02 04:35:42;;;;;;;25.77;17.92;;;;;;;10.16;75.82;101222.44;5090903;28;20015;-88
2024/01/02 04:38:08;;;;;;;29.63;18.52;;;;;;;9.86;75.91;101158.78;5092756;28;20063;-89
2024/01/02 04:40:33;;;;;;;27.35;18.17;;;;;;;9.97;75.88;101169.91;5086099;28;20047;-88
2024/01/02 04:42:59;;;;;;;27.85;18.25;;;;;;;9.85;75.41;101143.94;5089071;28;20028;-87
2024/01/02 04:45:25;;;;;;;27.90;18.70;;;;;;;10.25;75.85;101221.22;5092339;28;20174;-87
2024/01/02 04:47:50;;;;;;;27.17;17.25;;;;;;;9.97;75.95;101164.69;5077536;28;20040;-88
2024/01/02 04:50:16;;;;;;;27.35;17.13;;;;;;;9.95;75.86;101142.84;5099086;27;20406;-87
2024/01/02 04:52:43;;;;;;;27.00;17.80;;;;;;;10.05;75.79;101168.66;5088747;28;20170;-88
2024/01/02 04:55:09;;;;;;;26.17;17.58;;;;;;;10.03;75.74;101172.88;5083466;28;20032;-88
2024/01/02 04:57:34;;;;;;;28.85;18.05;;;;;;;9.95;75.86;101164.59;5088868;28;20032;-89
2024/01/02 05:00:00;;;;;;;29.67;18.45;;;;;;;9.92;75.99;101167.00;5086154;28;20044;-88
2024/01/02 05:02:25;;;;;;;24.88;17.55;;;;;;;9.97;75.94;101173.41;5083881;28;20032;-90
2024/01/02 05:04:52;;;;;;;26.05;17.15;;;;;;;9.92;76.16;101173.94;5088153;28;20020;-88
2024/01/02 05:07:18;;;;;;;28.15;18.30;;;;;;;9.95;75.65;101190.69;5085848;28;20035;-89
2024/01/02 05:09:44;;;;;;;25.52;17.13;;;;;;;10.03;75.89;101204.19;5075710;28;20032;-89
2024/01/02 05:12:10;;;;;;;28.23;17.85;;;;;;;9.91;75.72;101193.91;5075455;28;20111;-89
2024/01/02 05:14:35;;;;;;;26.92;17.63;;;;;;;9.93;75.88;101205.34;5075034;28;20105;-88
2024/01/02 05:17:02;;;;;;;26.38;17.25;;;;;;;10.10;76.01;101240.31;5086073;28;20040;-89
2024/01/02 05:19:28;;;;;;;27.05;17.30;;;;;;;10.25;75.76;101253.44;5071808;28;20056;-87
2024/01/02 05:21:54;;;;;;;25.45;16.80;;;;;;;9.90;75.51;101191.19;5071995;28;20021;-88
2024/01/02 05:24:20;;;;;;;26.55;17.20;;;;;;;9.90;76.07;101199.91;5076380;28;20032;-88
2024/01/02 05:26:45;;;;;;;25.90;17.10;;;;;;;10.01;76.02;101225.78;5081902;28;20035;-88
2024/01/02 05:29:11;;;;;;;26.02;17.30;;;;;;;9.92;76.03;101208.72;5091729;28;20135;-87
2024/01/02 05:31:37;;;;;;;25.98;17.45;;;;;;;10.09;76.01;101229.78;5078145;28;20032;-88
2024/01/02 05:34:02;;;;;;;23.33;16.52;;;;;;;9.73;75.89;101166.63;5080333;28;20043;-88
2024/01/02 05:36:28;;;;;;;24.33;16.77;;;;;;;9.87;76.09;101189.28;5086177;28;20044;-87
2024/01/02 05:38:54;;;;;;;27.08;18.05;;;;;;;10.12;75.81;101223.06;5073847;28;20039;-86
2024/01/02 05:41:20;;;;;;;26.15;16.65;;;;;;;10.17;76.16;101239.91;5083174;28;21385;-86
2024/01/02 05:43:45;;;;;;;24.02;16.70;;;;;;;9.89;76.21;101190.28;5087283;28;20021;-86
2024/01/02 05:46:11;;;;;;;25.75;17.95;;;;;;;10.22;75.92;101242.78;5082197;28;20028;-86
2024/01/02 05:48:37;;;;;;;27.58;17.45;;;;;;;9.89;75.97;101205.06;5080381;28;20032;-90
2024/01/02 05:51:06;;;;;;;27.60;17.33;;;;;;;10.02;75.80;101231.09;5062133;28;20024;-88
2024/01/02 05:53:31;;;;;;;26.23;17.73;;;;;;;9.77;76.12;101185.19;5081225;28;20052;-88
2024/01/02 05:55:57;;;;;;;27.58;17.05;;;;;;;10.11;75.62;101252.56;5095368;27;20082;-87
2024/01/02 05:58:23;;;;;;;27.55;18.00;;;;;;;10.06;75.95;101235.72;5080407;28;20035;-89
2024/01/02 06:00:50;;;;;;;24.33;16.63;;;;;;;10.09;76.07;101232.38;5088195;28;20023;-90
2024/01/02 06:03:16;;;;;;;28.40;17.45;;;;;;;9.95;76.01;101222.00;5059544;28;20036;-89
2024/01/02 06:05:42;;;;;;;25.85;16.90;;;;;;;9.97;76.26;101242.97;5066950;28;20082;-89
2024/01/02 06:08:08;;;;;;;25.38;17.27;;;;;;;9.67;75.97;101198.47;5085706;28;20401;-88
2024/01/02 06:10:34;;;;;;;25.85;16.70;;;;;;;10.02;76.09;101265.03;5075299;28;20035;-88
2024/01/02 06:13:00;;;;;;;27.10;18.00;;;;;;;10.13;75.96;101281.38;5089435;28;20040;-90
2024/01/02 06:15:32;;;;;;;26.33;16.73;;;;;;;9.89;76.01;101247.69;5064456;28;20543;-92
2024/01/02 06:17:58;;;;;;;27.90;17.65;;;;;;;9.97;75.96;101263.84;5088743;28;20040;-92
2024/01/02 06:20:26;;;;;;;26.38;17.23;;;;;;;10.12;75.70;101295.22;5070899;28;20032;-92
2024/01/02 06:22:52;;;;;;;27.38;17.38;;;;;;;10.06;76.22;101277.47;5070898;28;20512;-90
2024/01/02 06:25:18;;;;;;;24.98;16.42;;;;;;;9.96;75.90;101256.81;5080721;28;20036;-91
2024/01/02 06:27:48;;;;;;;24.17;16.08;;;;;;;10.16;76.10;101303.34;5102102;28;20118;-90
2024/01/02 06:30:13;;;;;;;26.23;17.25;;;;;;;9.85;76.20;101265.66;5068194;28;20020;-91
2024/01/02 06:32:39;;;;;;;25.10;17.17;;;;;;;10.06;76.38;101306.16;5069226;28;20085;-89
2024/01/02 06:35:06;;;;;;;26.98;17.58;;;;;;;9.93;76.27;101277.50;5070243;28;20062;-89
2024/01/02 06:37:32;;;;;;;25.17;16.20;;;;;;;9.98;76.36;101297.84;5067859;28;20079;-87
2024/01/02 06:39:58;;;;;;;22.15;15.65;;;;;;;10.10;76.19;101315.09;5078107;28;20032;-89
2024/01/02 06:42:23;;;;;;;24.73;16.23;;;;;;;10.10;76.51;101309.88;5068712;28;20361;-87
2024/01/02 06:44:49;;;;;;;26.33;16.73;;;;;;;9.82;76.25;101268.97;5065901;28;20040;-87
2024/01/02 06:47:15;;;;;;;26.48;17.48;;;;;;;10.09;76.55;101313.28;5080742;28;20093;-87
2024/01/02 06:49:40;;;;;;;25.25;16.88;;;;;;;10.01;76.81;101297.13;5083026;28;20032;-87
2024/01/02 06:52:06;;;;;;;26.13;17.17;;;;;;;9.99;76.30;101284.00;5088450;28;20075;-88
2024/01/02 06:54:32;;;;;;;26.50;18.08;;;;;;;9.88;76.56;101269.34;5086171;28;20032;-88
2024/01/02 06:56:58;;;;;;;;;;;;;;;10.06;76.35;101300.94;5085708;28;20042;-88
2024/01/02 06:59:24;;;;;;;25.58;16.42;;;;;;;9.94;76.82;101285.38;5085631;28;20332;-87
2024/01/02 07:01:49;;;;;;;25.90;17.38;;;;;;;9.52;76.48;101216.59;5089052;28;20059;-86
2024/01/02 07:04:15;;;;;;;28.23;18.92;;;;;;;9.70;76.48;101236.88;5089015;28;20093;-86
2024/01/02 07:06:43;;;;;;;29.20;19.02;;;;;;;9.89;76.12;101262.44;5079612;28;20032;-87
2024/01/02 07:09:08;;;;;;;26.67;17.65;;;;;;;9.85;76.09;101271.75;5084859;28;20061;-87
2024/01/02 07:11:34;;;;;;;24.33;16.75;;;;;;;9.85;76.56;101270.88;5065460;28;20029;-87
2024/01/02 07:14:00;;;;;;;26.00;16.88;;;;;;;9.93;76.66;101300.97;5078078;28;20032;-86
2024/01/02 07:16:25;;;;;;;24.88;16.50;;;;;;;9.88;76.42;101284.09;5087824;28;20024;-87
2024/01/02 07:18:51;;;;;;;26.25;17.00;;;;;;;9.89;76.43;101283.31;5085875;28;20036;-88
2024/01/02 07:21:17;;;;;;;23.75;16.30;;;;;;;9.93;76.45;101306.19;5090816;28;20036;-86
2024/01/02 07:23:43;;;;;;;24.90;16.60;;;;;;;9.66;76.56;101259.22;5077699;28;20119;-89
2024/01/02 07:26:09;;;;;;;25.00;16.90;;;;;;;10.01;76.36;101324.94;5079640;28;20110;-86
2024/01/02 07:28:38;;;;;;;25.58;16.88;;;;;;;9.77;76.38;101293.84;5069862;28;20028;-89
2024/01/02 07:31:05;;;;;;;26.67;16.88;;;;;;;9.67;76.23;101267.94;5062700;28;20512;-86
2024/01/02 07:33:31;;;;;;;24.02;16.60;;;;;;;9.76;76.48;101292.94;5086578;28;20485;-85
2024/01/02 07:35:57;;;;;;;25.77;17.33;;;;;;;9.99;76.74;101336.19;5069009;28;20021;-85
2024/01/02 07:38:26;;;;;;;27.25;17.30;;;;;;;9.47;76.93;101257.13;5080601;28;20122;-85
2024/01/02 07:40:53;;;;;;;25.55;17.05;;;;;;;9.57;76.58;101261.25;5068400;28;20068;-87
2024/01/02 07:43:18;;;;;;;27.45;17.38;;;;;;;9.58;76.93;101260.44;5087762;28;20020;-86
2024/01/02 07:45:44;;;;;;;24.40;17.30;;;;;;;9.81;76.74;101310.59;5087242;28;20032;-85
2024/01/02 07:48:10;;;;;;;26.13;17.42;;;;;;;9.62;76.70;101277.19;5070927;28;20460;-85
2024/01/02 07:50:35;;;;;;;27.67;17.67;;;;;;;9.85;76.91;101320.44;5088679;28;20105;-84
2024/01/02 07:53:01;;;;;;;25.30;16.83;;;;;;;9.59;76.74;101275.28;5094931;28;20043;-85
2024/01/02 07:55:27;;;;;;;27.13;17.35;;;;;;;9.95;76.66;101323.75;5086420;28;20024;-85
2024/01/02 07:57:52;;;;;;;27.63;18.15;;;;;;;9.67;76.87;101278.38;5083790;28;20036;-84
2024/01/02 08:00:18;;;;;;;27.85;18.00;;;;;;;9.66;76.69;101285.31;5089683;28;20020;-85
2024/01/02 08:02:44;;;;;;;28.15;17.80;;;;;;;9.62;76.76;101278.09;5088617;28;20040;-84
2024/01/02 08:05:10;;;;;;;30.08;19.40;;;;;;;9.96;76.53;101328.13;5089490;28;20028;-85
2024/01/02 08:07:35;;;;;;;27.52;18.65;;;;;;;10.06;76.83;101345.31;5092188;28;20032;-85
2024/01/02 08:10:01;;;;;;;28.80;17.88;;;;;;;10.06;76.68;101358.34;5087338;28;20039;-85
2024/01/02 08:12:27;;;;;;;25.10;16.65;;;;;;;9.82;76.54;101318.53;5086720;28;20118;-85
2024/01/02 08:14:53;;;;;;;29.50;18.23;;;;;;;9.77;76.91;101314.69;5091952;28;20481;-85
2024/01/02 08:17:23;;;;;;;29.42;19.52;;;;;;;10.02;76.53;101372.00;5079481;28;20036;-85
2024/01/02 08:19:51;;;;;;;32.05;19.52;;;;;;;9.54;76.66;101288.00;5077546;28;20032;-86
2024/01/02 08:22:17;;;;;;;28.88;18.30;;;;;;;9.77;77.05;101319.91;5092634;28;20026;-85
2024/01/02 08:24:44;;;;;;;27.13;17.92;;;;;;;10.07;76.89;101361.88;5072064;28;20012;-87
2024/01/02 08:27:10;;;;;;;28.73;17.98;;;;;;;9.99;76.50;101350.94;5078803;28;20115;-87
2024/01/02 08:29:36;;;;;;;27.98;17.38;;;;;;;9.60;76.84;101297.94;5078926;28;20107;-88
2024/01/02 08:32:02;;;;;;;29.05;19.10;;;;;;;9.53;76.71;101283.59;5074979;28;20036;-89
2024/01/02 08:34:28;;;;;;;26.20;17.48;;;;;;;9.88;76.63;101331.94;5083991;28;20020;-88
2024/01/02 08:36:54;;;;;;;25.90;17.30;;;;;;;9.62;76.65;101291.13;5088895;28;20049;-89
2024/01/02 08:39:21;;;;;;;26.95;17.20;;;;;;;9.72;76.19;101301.38;5091547;28;20466;-89
2024/01/02 08:41:46;;;;;;;28.20;16.52;;;;;;;9.81;76.79;101316.72;5086346;28;20469;-88
2024/01/02 08:44:12;;;;;;;25.08;16.13;;;;;;;9.98;76.59;101339.59;5099922;28;20529;-88
2024/01/02 08:46:38;;;;;;;26.00;17.10;;;;;;;10.09;76.44;101350.72;5089875;28;20027;-88
2024/01/02 08:49:06;;;;;;;24.20;16.02;;;;;;;9.71;76.43;101289.09;5088205;28;20041;-88
2024/01/02 08:51:33;;;;;;;26.27;16.60;;;;;;;10.03;76.50;101341.59;5084134;28;20465;-88
2024/01/02 08:53:58;;;;;;;;;;;;;;;10.12;76.57;101339.59;5068533;28;20505;-89
2024/01/02 08:56:24;;;;;;;24.33;16.27;;;;;;;10.09;76.46;101344.59;5089113;28;19919;-89
2024/01/02 08:58:49;;;;;;;23.92;16.70;;;;;;;9.90;76.60;101319.91;5079661;28;20064;-87
2024/01/02 09:01:19;;;;;;;24.50;15.52;;;;;;;9.58;76.45;101258.72;5083712;28;20059;-88
2024/01/02 09:03:45;;;;;;;23.52;15.93;;;;;;;9.69;76.81;101279.38;5071769;28;20054;-86
2024/01/02 09:06:11;;;;;;;26.50;16.90;;;;;;;9.69;76.72;101274.16;5081430;28;20573;-86
2024/01/02 09:08:36;;;;;;;22.17;15.30;;;;;;;9.96;76.42;101314.19;5086286;28;20116;-86
2024/01/02 09:11:02;;;;;;;24.52;16.58;;;;;;;9.78;76.65;101287.84;5085520;28;20032;-86
2024/01/02 09:13:28;;;;;;;23.30;15.88;;;;;;;9.82;76.64;101304.56;5085969;28;20039;-86
2024/01/02 09:15:53;;;;;;;24.25;16.63;;;;;;;9.71;76.79;101269.97;5086950;28;20115;-87
2024/01/02 09:18:19;;;;;;;27.02;16.83;;;;;;;9.90;76.66;101311.19;5079206;28;20082;-87
2024/01/02 09:20:47;;;;;;;24.58;16.73;;;;;;;10.03;76.57;101329.44;5080613;28;20031;-86
2024/01/02 09:23:13;;;;;;;22.50;15.32;;;;;;;9.62;76.79;101259.84;5088027;28;20031;-85
2024/01/02 09:25:40;;;;;;;21.52;15.13;;;;;;;9.67;76.48;101258.44;5085260;28;20024;-86
2024/01/02 09:28:06;;;;;;;22.85;15.45;;;;;;;9.88;76.62;101302.34;5087637;28;20042;-86
2024/01/02 09:30:33;;;;;;;24.35;15.32;;;;;;;9.82;77.07;101283.69;5091855;28;20023;-86
2024/01/02 09:32:59;;;;;;;22.25;15.30;;;;;;;9.78;76.79;101278.28;5090322;28;20099;-88
2024/01/02 09:35:24;;;;;;;23.90;16.85;;;;;;;9.68;76.98;101256.72;5089052;28;20599;-87
2024/01/02 09:37:50;;;;;;;24.02;16.48;;;;;;;9.83;76.47;101269.88;5089171;28;20048;-87
2024/01/02 09:40:53;;;;;;;23.70;15.95;;;;;;;9.96;76.91;101307.25;5072211;28;20090;-87
2024/01/02 09:43:33;;;;;;;23.83;15.75;;;;;;;9.96;76.79;101301.16;5080015;28;20028;-87
2024/01/02 09:46:44;;;;;;;23.90;16.10;;;;;;;10.03;76.89;101297.22;5091344;28;20546;-87
2024/01/02 09:49:15;;;;;;;24.92;16.13;;;;;;;10.04;76.96;101299.94;5061038;28;20058;-85
2024/01/02 09:52:04;;;;;;;22.83;15.25;;;;;;;10.07;76.83;101296.63;5085173;28;20028;-86
2024/01/02 09:55:07;;;;;;;21.67;14.73;;;;;;;10.10;76.41;101300.34;5086123;28;20516;-87
2024/01/02 09:57:34;;;;;;;23.13;14.40;;;;;;;10.07;76.61;101299.22;5091501;28;20510;-86
2024/01/02 10:00:05;;;;;;;20.27;14.52;;;;;;;10.04;76.63;101294.72;5073962;28;20039;-86
2024/01/02 10:02:34;;;;;;;22.92;14.30;;;;;;;10.09;76.62;101290.69;5087988;28;20043;-85
2024/01/02 10:05:16;;;;;;;22.27;14.98;;;;;;;9.99;76.75;101280.50;5081090;28;20605;-86
2024/01/02 10:07:48;;;;;;;20.95;14.07;;;;;;;10.11;76.68;101285.59;5091655;28;20031;-86
2024/01/02 10:10:48;;;;;;;19.80;14.00;;;;;;;10.07;76.85;101294.91;5071272;28;20410;-86
2024/01/02 10:13:13;;;;;;;21.45;13.52;;;;;;;10.10;76.74;101287.28;5082131;28;20040;-86
2024/01/02 10:15:56;;;;;;;20.23;13.52;;;;;;;10.11;76.46;101282.97;5084689;28;20100;-87
2024/01/02 10:18:35;;;;;;;19.77;13.00;;;;;;;10.10;76.79;101284.69;5078315;28;20036;-88
2024/01/02 10:21:08;;;;;;;19.35;13.38;;;;;;;9.94;76.37;101263.63;5077164;28;20046;-87
2024/01/02 10:23:39;;;;;;;21.48;12.93;;;;;;;10.09;76.62;101297.63;5094958;28;20034;-87
2024/01/02 10:26:08;;;;;;;18.58;12.07;;;;;;;10.10;76.39;101292.53;5085651;28;20071;-87
2024/01/02 10:28:35;;;;;;;18.08;11.88;;;;;;;9.99;76.53;101281.38;5080068;28;20031;-86
2024/01/02 10:31:26;;;;;;;20.00;13.18;;;;;;;9.98;76.64;101276.06;5066080;28;20040;-87
2024/01/02 10:34:16;;;;;;;16.60;12.07;;;;;;;9.99;76.75;101277.88;5083074;28;20020;-87
2024/01/02 10:36:49;;;;;;;16.88;11.75;;;;;;;10.00;76.58;101279.69;5067239;28;20494;-87
2024/01/02 10:39:26;;;;;;;17.42;11.48;;;;;;;10.04;76.90;101294.72;5093297;28;20078;-87
2024/01/02 10:42:24;;;;;;;16.77;11.23;;;;;;;10.08;76.54;101293.22;5088264;28;20028;-87
2024/01/02 10:45:17;;;;;;;17.10;11.18;;;;;;;10.09;76.76;101293.31;5069073;28;20048;-87
2024/01/02 10:48:15;;;;;;;15.88;10.85;;;;;;;10.01;76.56;101273.63;5085269;28;20031;-87
2024/01/02 10:51:04;;;;;;;15.20;10.60;;;;;;;9.92;76.72;101244.38;5080226;28;20047;-86
2024/01/02 10:53:40;;;;;;;14.18;9.95;;;;;;;10.06;76.94;101263.53;5084214;28;20025;-86
2024/01/02 10:56:13;;;;;;;14.45;9.75;;;;;;;10.08;76.41;101264.53;5078371;28;20029;-87
2024/01/02 10:58:52;;;;;;;15.40;9.90;;;;;;;9.75;76.69;101204.16;5084800;28;20024;-89
2024/01/02 11:01:19;;;;;;;14.93;9.77;;;;;;;9.92;76.54;101232.22;5066306;28;20093;-87
2024/01/02 11:04:23;;;;;;;14.40;9.70;;;;;;;10.04;76.98;101252.97;5076899;28;20032;-89
2024/01/02 11:07:06;;;;;;;13.52;9.23;;;;;;;9.92;77.17;101242.66;5061904;28;20043;-89
2024/01/02 11:09:49;;;;;;;14.52;9.30;;;;;;;9.98;76.80;101245.66;5114850;27;20480;-89
2024/01/02 11:12:16;;;;;;;13.60;9.77;;;;;;;9.87;77.02;101225.81;5079250;28;20024;-87
2024/01/02 11:14:43;;;;;;;13.38;9.32;;;;;;;9.84;76.76;101217.81;5085618;28;20031;-88
2024/01/02 11:17:11;;;;;;;11.93;8.80;;;;;;;9.92;77.26;101221.78;5088159;28;20035;-87